sensor_id;sensor_type;location;lat;lon;timestamp;P1;durP1;ratioP1;P2;durP2;ratioP2
40649;SDS011;26342;42.826;23.992;2023-03-11T00:00:33;0.38;;;0.38;;
40649;SDS011;26342;42.826;23.992;2023-03-11T00:03:01;0.70;;;0.57;;
40649;SDS011;26342;42.826;23.992;2023-03-11T00:05:31;1.90;;;0.47;;
40649;SDS011;26342;42.826;23.992;2023-03-11T00:07:59;0.77;;;0.70;;
40649;SDS011;26342;42.826;23.992;2023-03-11T00:10:29;0.65;;;0.65;;
40649;SDS011;26342;42.826;23.992;2023-03-11T00:12:59;1.55;;;0.52;;
40649;SDS011;26342;42.826;23.992;2023-03-11T00:15:26;0.30;;;0.30;;
40649;SDS011;26342;42.826;23.992;2023-03-11T00:17:52;10.90;;;1.63;;
40649;SDS011;26342;42.826;23.992;2023-03-11T00:20:22;1.85;;;1.25;;
40649;SDS011;26342;42.826;23.992;2023-03-11T00:22:52;0.63;;;0.63;;
40649;SDS011;26342;42.826;23.992;2023-03-11T00:25:18;0.40;;;0.38;;
40649;SDS011;26342;42.826;23.992;2023-03-11T00:27:45;1.27;;;0.90;;
40649;SDS011;26342;42.826;23.992;2023-03-11T00:30:12;1.20;;;1.10;;
40649;SDS011;26342;42.826;23.992;2023-03-11T00:32:38;1.55;;;0.93;;
40649;SDS011;26342;42.826;23.992;2023-03-11T00:35:04;6.18;;;1.17;;
40649;SDS011;26342;42.826;23.992;2023-03-11T00:37:30;1.05;;;0.95;;
40649;SDS011;26342;42.826;23.992;2023-03-11T00:39:55;1.00;;;0.32;;
40649;SDS011;26342;42.826;23.992;2023-03-11T00:42:21;4.30;;;1.25;;
40649;SDS011;26342;42.826;23.992;2023-03-11T00:44:46;0.47;;;0.47;;
40649;SDS011;26342;42.826;23.992;2023-03-11T00:47:12;0.10;;;0.10;;
40649;SDS011;26342;42.826;23.992;2023-03-11T00:49:37;0.65;;;0.32;;
40649;SDS011;26342;42.826;23.992;2023-03-11T00:52:03;0.20;;;0.20;;
40649;SDS011;26342;42.826;23.992;2023-03-11T00:54:29;1.23;;;0.70;;
40649;SDS011;26342;42.826;23.992;2023-03-11T00:56:54;0.52;;;0.52;;
40649;SDS011;26342;42.826;23.992;2023-03-11T00:59:20;0.50;;;0.50;;
40649;SDS011;26342;42.826;23.992;2023-03-11T01:01:45;1.02;;;0.77;;
40649;SDS011;26342;42.826;23.992;2023-03-11T01:04:11;0.38;;;0.38;;
40649;SDS011;26342;42.826;23.992;2023-03-11T01:06:36;0.25;;;0.25;;
40649;SDS011;26342;42.826;23.992;2023-03-11T01:09:02;4.57;;;2.55;;
40649;SDS011;26342;42.826;23.992;2023-03-11T01:11:28;0.82;;;0.82;;
40649;SDS011;26342;42.826;23.992;2023-03-11T01:13:54;0.32;;;0.32;;
40649;SDS011;26342;42.826;23.992;2023-03-11T01:16:19;1.27;;;0.43;;
40649;SDS011;26342;42.826;23.992;2023-03-11T01:18:45;0.35;;;0.35;;
40649;SDS011;26342;42.826;23.992;2023-03-11T01:21:11;0.70;;;0.47;;
40649;SDS011;26342;42.826;23.992;2023-03-11T01:23:37;0.35;;;0.30;;
40649;SDS011;26342;42.826;23.992;2023-03-11T01:26:03;0.40;;;0.38;;
40649;SDS011;26342;42.826;23.992;2023-03-11T01:28:28;0.75;;;0.57;;
40649;SDS011;26342;42.826;23.992;2023-03-11T01:30:54;0.22;;;0.20;;
40649;SDS011;26342;42.826;23.992;2023-03-11T01:33:19;0.10;;;0.10;;
40649;SDS011;26342;42.826;23.992;2023-03-11T01:35:46;20.67;;;0.75;;
40649;SDS011;26342;42.826;23.992;2023-03-11T01:38:13;0.00;;;0.00;;
40649;SDS011;26342;42.826;23.992;2023-03-11T01:48:52;0.20;;;0.20;;
40649;SDS011;26342;42.826;23.992;2023-03-11T01:51:22;0.00;;;0.00;;
40649;SDS011;26342;42.826;23.992;2023-03-11T01:53:54;0.10;;;0.10;;
40649;SDS011;26342;42.826;23.992;2023-03-11T01:56:21;0.00;;;0.00;;
40649;SDS011;26342;42.826;23.992;2023-03-11T01:58:47;0.22;;;0.22;;
40649;SDS011;26342;42.826;23.992;2023-03-11T02:01:17;0.00;;;0.00;;
40649;SDS011;26342;42.826;23.992;2023-03-11T02:03:44;0.00;;;0.00;;
40649;SDS011;26342;42.826;23.992;2023-03-11T02:06:16;0.03;;;0.03;;
40649;SDS011;26342;42.826;23.992;2023-03-11T02:08:44;0.00;;;0.00;;
40649;SDS011;26342;42.826;23.992;2023-03-11T02:11:11;0.10;;;0.10;;
40649;SDS011;26342;42.826;23.992;2023-03-11T02:13:42;0.00;;;0.00;;
40649;SDS011;26342;42.826;23.992;2023-03-11T02:16:09;0.00;;;0.00;;
40649;SDS011;26342;42.826;23.992;2023-03-11T02:18:35;0.10;;;0.10;;
40649;SDS011;26342;42.826;23.992;2023-03-11T02:27:06;0.00;;;0.00;;
40649;SDS011;26342;42.826;23.992;2023-03-11T02:29:33;0.00;;;0.00;;
40649;SDS011;26342;42.826;23.992;2023-03-11T02:32:00;0.00;;;0.00;;
40649;SDS011;26342;42.826;23.992;2023-03-11T02:34:30;0.00;;;0.00;;
40649;SDS011;26342;42.826;23.992;2023-03-11T02:36:59;0.57;;;0.35;;
40649;SDS011;26342;42.826;23.992;2023-03-11T02:39:34;1.77;;;0.85;;
40649;SDS011;26342;42.826;23.992;2023-03-11T02:42:16;1.65;;;0.52;;
40649;SDS011;26342;42.826;23.992;2023-03-11T02:44:43;0.70;;;0.52;;
40649;SDS011;26342;42.826;23.992;2023-03-11T02:47:13;2.58;;;0.85;;
40649;SDS011;26342;42.826;23.992;2023-03-11T02:49:39;0.00;;;0.00;;
40649;SDS011;26342;42.826;23.992;2023-03-11T02:52:04;1.55;;;0.20;;
40649;SDS011;26342;42.826;23.992;2023-03-11T02:54:30;0.10;;;0.10;;
40649;SDS011;26342;42.826;23.992;2023-03-11T02:56:55;0.10;;;0.10;;
40649;SDS011;26342;42.826;23.992;2023-03-11T02:59:21;0.20;;;0.20;;
40649;SDS011;26342;42.826;23.992;2023-03-11T03:01:46;0.00;;;0.00;;
40649;SDS011;26342;42.826;23.992;2023-03-11T03:04:12;0.00;;;0.00;;
40649;SDS011;26342;42.826;23.992;2023-03-11T03:06:37;0.00;;;0.00;;
40649;SDS011;26342;42.826;23.992;2023-03-11T03:09:02;0.00;;;0.00;;
40649;SDS011;26342;42.826;23.992;2023-03-11T03:11:28;0.17;;;0.05;;
40649;SDS011;26342;42.826;23.992;2023-03-11T03:13:54;0.00;;;0.00;;
40649;SDS011;26342;42.826;23.992;2023-03-11T03:16:19;0.08;;;0.08;;
40649;SDS011;26342;42.826;23.992;2023-03-11T03:18:44;0.00;;;0.00;;
40649;SDS011;26342;42.826;23.992;2023-03-11T03:21:10;0.10;;;0.10;;
40649;SDS011;26342;42.826;23.992;2023-03-11T03:23:35;0.10;;;0.10;;
40649;SDS011;26342;42.826;23.992;2023-03-11T03:26:02;0.00;;;0.00;;
40649;SDS011;26342;42.826;23.992;2023-03-11T03:28:29;0.03;;;0.03;;
40649;SDS011;26342;42.826;23.992;2023-03-11T03:30:54;0.40;;;0.40;;
40649;SDS011;26342;42.826;23.992;2023-03-11T03:33:20;0.38;;;0.15;;
40649;SDS011;26342;42.826;23.992;2023-03-11T03:35:45;0.47;;;0.45;;
40649;SDS011;26342;42.826;23.992;2023-03-11T03:38:11;0.10;;;0.10;;
40649;SDS011;26342;42.826;23.992;2023-03-11T03:40:36;0.10;;;0.10;;
40649;SDS011;26342;42.826;23.992;2023-03-11T03:43:02;0.00;;;0.00;;
40649;SDS011;26342;42.826;23.992;2023-03-11T03:45:28;0.35;;;0.30;;
40649;SDS011;26342;42.826;23.992;2023-03-11T03:47:54;0.08;;;0.08;;
40649;SDS011;26342;42.826;23.992;2023-03-11T03:50:19;0.17;;;0.17;;
40649;SDS011;26342;42.826;23.992;2023-03-11T03:52:45;0.10;;;0.10;;
40649;SDS011;26342;42.826;23.992;2023-03-11T03:55:10;0.00;;;0.00;;
40649;SDS011;26342;42.826;23.992;2023-03-11T03:57:36;0.10;;;0.10;;
40649;SDS011;26342;42.826;23.992;2023-03-11T04:00:01;0.00;;;0.00;;
40649;SDS011;26342;42.826;23.992;2023-03-11T04:02:28;0.00;;;0.00;;
40649;SDS011;26342;42.826;23.992;2023-03-11T04:04:54;0.00;;;0.00;;
40649;SDS011;26342;42.826;23.992;2023-03-11T04:07:19;0.00;;;0.00;;
40649;SDS011;26342;42.826;23.992;2023-03-11T04:09:45;0.20;;;0.20;;
40649;SDS011;26342;42.826;23.992;2023-03-11T04:12:12;0.20;;;0.20;;
40649;SDS011;26342;42.826;23.992;2023-03-11T04:14:39;1.10;;;0.28;;
40649;SDS011;26342;42.826;23.992;2023-03-11T04:17:05;0.70;;;0.20;;
40649;SDS011;26342;42.826;23.992;2023-03-11T04:19:31;0.40;;;0.40;;
40649;SDS011;26342;42.826;23.992;2023-03-11T04:21:56;0.00;;;0.00;;
40649;SDS011;26342;42.826;23.992;2023-03-11T04:24:22;0.03;;;0.03;;
40649;SDS011;26342;42.826;23.992;2023-03-11T04:26:47;0.13;;;0.13;;
40649;SDS011;26342;42.826;23.992;2023-03-11T04:29:12;0.00;;;0.00;;
40649;SDS011;26342;42.826;23.992;2023-03-11T04:31:38;1.48;;;1.02;;
40649;SDS011;26342;42.826;23.992;2023-03-11T04:34:03;0.50;;;0.50;;
40649;SDS011;26342;42.826;23.992;2023-03-11T04:36:29;0.63;;;0.57;;
40649;SDS011;26342;42.826;23.992;2023-03-11T04:38:55;1.10;;;0.75;;
40649;SDS011;26342;42.826;23.992;2023-03-11T04:41:21;0.70;;;0.45;;
40649;SDS011;26342;42.826;23.992;2023-03-11T04:43:46;6.30;;;2.85;;
40649;SDS011;26342;42.826;23.992;2023-03-11T04:46:11;0.73;;;0.73;;
40649;SDS011;26342;42.826;23.992;2023-03-11T04:48:37;0.43;;;0.35;;
40649;SDS011;26342;42.826;23.992;2023-03-11T04:51:02;0.22;;;0.22;;
40649;SDS011;26342;42.826;23.992;2023-03-11T04:53:28;0.32;;;0.32;;
40649;SDS011;26342;42.826;23.992;2023-03-11T04:55:54;0.20;;;0.20;;
40649;SDS011;26342;42.826;23.992;2023-03-11T04:58:19;0.10;;;0.10;;
40649;SDS011;26342;42.826;23.992;2023-03-11T05:00:45;0.10;;;0.10;;
40649;SDS011;26342;42.826;23.992;2023-03-11T05:03:10;0.00;;;0.00;;
40649;SDS011;26342;42.826;23.992;2023-03-11T05:05:36;0.00;;;0.00;;
40649;SDS011;26342;42.826;23.992;2023-03-11T05:08:01;0.35;;;0.35;;
40649;SDS011;26342;42.826;23.992;2023-03-11T05:10:27;0.00;;;0.00;;
40649;SDS011;26342;42.826;23.992;2023-03-11T05:12:53;0.10;;;0.10;;
40649;SDS011;26342;42.826;23.992;2023-03-11T05:15:18;0.00;;;0.00;;
40649;SDS011;26342;42.826;23.992;2023-03-11T05:17:44;0.10;;;0.10;;
40649;SDS011;26342;42.826;23.992;2023-03-11T05:20:10;1.73;;;0.38;;
40649;SDS011;26342;42.826;23.992;2023-03-11T05:22:36;0.20;;;0.05;;
40649;SDS011;26342;42.826;23.992;2023-03-11T05:25:03;0.82;;;0.50;;
40649;SDS011;26342;42.826;23.992;2023-03-11T05:27:29;0.10;;;0.10;;
40649;SDS011;26342;42.826;23.992;2023-03-11T05:29:54;0.05;;;0.05;;
40649;SDS011;26342;42.826;23.992;2023-03-11T05:32:19;0.40;;;0.40;;
40649;SDS011;26342;42.826;23.992;2023-03-11T05:34:45;0.00;;;0.00;;
40649;SDS011;26342;42.826;23.992;2023-03-11T05:37:11;0.22;;;0.22;;
40649;SDS011;26342;42.826;23.992;2023-03-11T05:39:36;0.10;;;0.10;;
40649;SDS011;26342;42.826;23.992;2023-03-11T05:42:02;0.35;;;0.35;;
40649;SDS011;26342;42.826;23.992;2023-03-11T05:44:29;0.95;;;0.88;;
40649;SDS011;26342;42.826;23.992;2023-03-11T05:46:55;2.80;;;1.25;;
40649;SDS011;26342;42.826;23.992;2023-03-11T05:49:20;0.55;;;0.52;;
40649;SDS011;26342;42.826;23.992;2023-03-11T05:51:46;0.28;;;0.25;;
40649;SDS011;26342;42.826;23.992;2023-03-11T05:54:12;0.40;;;0.20;;
40649;SDS011;26342;42.826;23.992;2023-03-11T05:56:39;0.10;;;0.00;;
40649;SDS011;26342;42.826;23.992;2023-03-11T05:59:06;0.10;;;0.10;;
40649;SDS011;26342;42.826;23.992;2023-03-11T06:01:32;0.22;;;0.22;;
40649;SDS011;26342;42.826;23.992;2023-03-11T06:03:58;0.38;;;0.30;;
40649;SDS011;26342;42.826;23.992;2023-03-11T06:06:24;0.30;;;0.20;;
40649;SDS011;26342;42.826;23.992;2023-03-11T06:08:49;0.17;;;0.17;;
40649;SDS011;26342;42.826;23.992;2023-03-11T06:11:14;0.43;;;0.43;;
40649;SDS011;26342;42.826;23.992;2023-03-11T06:13:40;0.00;;;0.00;;
40649;SDS011;26342;42.826;23.992;2023-03-11T06:16:06;0.30;;;0.30;;
40649;SDS011;26342;42.826;23.992;2023-03-11T06:18:32;0.70;;;0.60;;
40649;SDS011;26342;42.826;23.992;2023-03-11T06:20:58;0.20;;;0.20;;
40649;SDS011;26342;42.826;23.992;2023-03-11T06:23:28;0.30;;;0.20;;
40649;SDS011;26342;42.826;23.992;2023-03-11T06:25:58;0.60;;;0.30;;
40649;SDS011;26342;42.826;23.992;2023-03-11T06:28:25;3.28;;;1.35;;
40649;SDS011;26342;42.826;23.992;2023-03-11T06:30:51;0.13;;;0.05;;
40649;SDS011;26342;42.826;23.992;2023-03-11T06:33:17;0.30;;;0.30;;
40649;SDS011;26342;42.826;23.992;2023-03-11T06:35:42;2.65;;;1.23;;
40649;SDS011;26342;42.826;23.992;2023-03-11T06:38:08;0.70;;;0.70;;
40649;SDS011;26342;42.826;23.992;2023-03-11T06:40:35;3.10;;;2.17;;
40649;SDS011;26342;42.826;23.992;2023-03-11T06:43:01;2.67;;;1.13;;
40649;SDS011;26342;42.826;23.992;2023-03-11T06:45:26;2.08;;;1.05;;
40649;SDS011;26342;42.826;23.992;2023-03-11T06:47:52;0.88;;;0.50;;
40649;SDS011;26342;42.826;23.992;2023-03-11T06:50:18;0.08;;;0.03;;
40649;SDS011;26342;42.826;23.992;2023-03-11T06:52:43;2.28;;;0.80;;
40649;SDS011;26342;42.826;23.992;2023-03-11T06:55:09;6.30;;;3.78;;
40649;SDS011;26342;42.826;23.992;2023-03-11T06:57:35;4.43;;;2.80;;
40649;SDS011;26342;42.826;23.992;2023-03-11T07:00:00;2.92;;;1.77;;
40649;SDS011;26342;42.826;23.992;2023-03-11T07:02:26;2.83;;;2.15;;
40649;SDS011;26342;42.826;23.992;2023-03-11T07:04:51;4.50;;;2.88;;
40649;SDS011;26342;42.826;23.992;2023-03-11T07:07:16;7.50;;;4.20;;
40649;SDS011;26342;42.826;23.992;2023-03-11T07:09:43;5.32;;;3.20;;
40649;SDS011;26342;42.826;23.992;2023-03-11T07:12:09;4.22;;;2.63;;
40649;SDS011;26342;42.826;23.992;2023-03-11T07:14:34;4.03;;;2.40;;
40649;SDS011;26342;42.826;23.992;2023-03-11T07:16:59;3.92;;;2.22;;
40649;SDS011;26342;42.826;23.992;2023-03-11T07:19:25;3.22;;;1.67;;
40649;SDS011;26342;42.826;23.992;2023-03-11T07:21:51;3.65;;;2.65;;
40649;SDS011;26342;42.826;23.992;2023-03-11T07:24:16;3.33;;;2.10;;
40649;SDS011;26342;42.826;23.992;2023-03-11T07:26:42;3.95;;;2.45;;
40649;SDS011;26342;42.826;23.992;2023-03-11T07:29:07;7.47;;;5.63;;
40649;SDS011;26342;42.826;23.992;2023-03-11T07:31:34;3.97;;;3.67;;
40649;SDS011;26342;42.826;23.992;2023-03-11T07:34:01;7.85;;;3.70;;
40649;SDS011;26342;42.826;23.992;2023-03-11T07:36:29;4.40;;;2.97;;
40649;SDS011;26342;42.826;23.992;2023-03-11T07:38:58;3.95;;;3.38;;
40649;SDS011;26342;42.826;23.992;2023-03-11T07:43:54;1.23;;;1.17;;
40649;SDS011;26342;42.826;23.992;2023-03-11T07:46:21;0.68;;;0.68;;
40649;SDS011;26342;42.826;23.992;2023-03-11T07:48:48;3.10;;;2.17;;
40649;SDS011;26342;42.826;23.992;2023-03-11T07:51:16;2.05;;;1.50;;
40649;SDS011;26342;42.826;23.992;2023-03-11T07:53:43;0.55;;;0.52;;
40649;SDS011;26342;42.826;23.992;2023-03-11T07:56:10;0.30;;;0.30;;
40649;SDS011;26342;42.826;23.992;2023-03-11T07:58:36;1.85;;;1.17;;
40649;SDS011;26342;42.826;23.992;2023-03-11T08:01:10;1.40;;;1.13;;
40649;SDS011;26342;42.826;23.992;2023-03-11T08:03:37;1.55;;;1.23;;
40649;SDS011;26342;42.826;23.992;2023-03-11T08:06:12;1.77;;;1.52;;
40649;SDS011;26342;42.826;23.992;2023-03-11T08:08:45;1.50;;;1.15;;
40649;SDS011;26342;42.826;23.992;2023-03-11T08:11:12;3.10;;;1.77;;
40649;SDS011;26342;42.826;23.992;2023-03-11T08:13:38;10.75;;;2.50;;
40649;SDS011;26342;42.826;23.992;2023-03-11T08:16:06;0.77;;;0.73;;
40649;SDS011;26342;42.826;23.992;2023-03-11T08:18:32;7.38;;;2.33;;
40649;SDS011;26342;42.826;23.992;2023-03-11T08:20:58;2.60;;;2.15;;
40649;SDS011;26342;42.826;23.992;2023-03-11T08:23:32;1.10;;;0.73;;
40649;SDS011;26342;42.826;23.992;2023-03-11T08:25:58;1.77;;;1.20;;
40649;SDS011;26342;42.826;23.992;2023-03-11T08:28:26;0.70;;;0.63;;
40649;SDS011;26342;42.826;23.992;2023-03-11T08:30:51;2.55;;;0.75;;
40649;SDS011;26342;42.826;23.992;2023-03-11T08:33:17;3.55;;;1.08;;
40649;SDS011;26342;42.826;23.992;2023-03-11T08:35:42;1.25;;;1.13;;
40649;SDS011;26342;42.826;23.992;2023-03-11T08:38:07;0.20;;;0.20;;
40649;SDS011;26342;42.826;23.992;2023-03-11T08:40:33;0.70;;;0.43;;
40649;SDS011;26342;42.826;23.992;2023-03-11T08:42:58;0.63;;;0.50;;
40649;SDS011;26342;42.826;23.992;2023-03-11T08:45:24;1.10;;;0.52;;
40649;SDS011;26342;42.826;23.992;2023-03-11T08:47:49;0.15;;;0.15;;
40649;SDS011;26342;42.826;23.992;2023-03-11T08:50:15;0.20;;;0.20;;
40649;SDS011;26342;42.826;23.992;2023-03-11T08:52:42;0.55;;;0.28;;
40649;SDS011;26342;42.826;23.992;2023-03-11T08:55:08;0.28;;;0.28;;
40649;SDS011;26342;42.826;23.992;2023-03-11T08:57:36;4.38;;;1.58;;
40649;SDS011;26342;42.826;23.992;2023-03-11T09:00:03;1.33;;;0.68;;
40649;SDS011;26342;42.826;23.992;2023-03-11T09:02:31;0.43;;;0.43;;
40649;SDS011;26342;42.826;23.992;2023-03-11T09:04:56;0.47;;;0.40;;
40649;SDS011;26342;42.826;23.992;2023-03-11T09:07:22;0.10;;;0.10;;
40649;SDS011;26342;42.826;23.992;2023-03-11T09:09:47;0.10;;;0.10;;
40649;SDS011;26342;42.826;23.992;2023-03-11T09:12:12;0.22;;;0.22;;
40649;SDS011;26342;42.826;23.992;2023-03-11T09:14:39;0.08;;;0.08;;
40649;SDS011;26342;42.826;23.992;2023-03-11T09:17:05;0.10;;;0.10;;
40649;SDS011;26342;42.826;23.992;2023-03-11T09:19:31;0.17;;;0.17;;
40649;SDS011;26342;42.826;23.992;2023-03-11T09:21:58;0.10;;;0.10;;
40649;SDS011;26342;42.826;23.992;2023-03-11T09:24:24;1.85;;;0.47;;
40649;SDS011;26342;42.826;23.992;2023-03-11T09:26:50;0.47;;;0.20;;
40649;SDS011;26342;42.826;23.992;2023-03-11T09:29:15;0.55;;;0.47;;
40649;SDS011;26342;42.826;23.992;2023-03-11T09:31:40;0.00;;;0.00;;
40649;SDS011;26342;42.826;23.992;2023-03-11T09:34:06;0.10;;;0.10;;
40649;SDS011;26342;42.826;23.992;2023-03-11T09:36:32;0.10;;;0.10;;
40649;SDS011;26342;42.826;23.992;2023-03-11T09:38:59;0.38;;;0.13;;
40649;SDS011;26342;42.826;23.992;2023-03-11T09:41:26;0.40;;;0.40;;
40649;SDS011;26342;42.826;23.992;2023-03-11T09:44:04;1.88;;;0.55;;
40649;SDS011;26342;42.826;23.992;2023-03-11T09:46:48;1.65;;;0.75;;
40649;SDS011;26342;42.826;23.992;2023-03-11T09:54:42;0.32;;;0.15;;
40649;SDS011;26342;42.826;23.992;2023-03-11T09:57:13;0.03;;;0.03;;
40649;SDS011;26342;42.826;23.992;2023-03-11T09:59:43;0.17;;;0.17;;
40649;SDS011;26342;42.826;23.992;2023-03-11T10:02:11;0.65;;;0.32;;
40649;SDS011;26342;42.826;23.992;2023-03-11T10:04:41;0.20;;;0.20;;
40649;SDS011;26342;42.826;23.992;2023-03-11T10:07:16;0.75;;;0.75;;
40649;SDS011;26342;42.826;23.992;2023-03-11T10:09:52;0.10;;;0.10;;
40649;SDS011;26342;42.826;23.992;2023-03-11T10:15:15;0.15;;;0.15;;
40649;SDS011;26342;42.826;23.992;2023-03-11T10:23:23;1.10;;;0.30;;
40649;SDS011;26342;42.826;23.992;2023-03-11T10:28:21;0.20;;;0.20;;
40649;SDS011;26342;42.826;23.992;2023-03-11T10:30:52;0.40;;;0.40;;
40649;SDS011;26342;42.826;23.992;2023-03-11T10:33:34;0.75;;;0.75;;
40649;SDS011;26342;42.826;23.992;2023-03-11T10:36:11;0.10;;;0.10;;
40649;SDS011;26342;42.826;23.992;2023-03-11T10:38:44;0.32;;;0.32;;
40649;SDS011;26342;42.826;23.992;2023-03-11T10:41:56;1.30;;;0.80;;
40649;SDS011;26342;42.826;23.992;2023-03-11T10:44:05;2.25;;;1.02;;
40649;SDS011;26342;42.826;23.992;2023-03-11T10:46:38;3.45;;;0.38;;
40649;SDS011;26342;42.826;23.992;2023-03-11T10:49:04;0.55;;;0.30;;
40649;SDS011;26342;42.826;23.992;2023-03-11T10:54:02;0.40;;;0.40;;
40649;SDS011;26342;42.826;23.992;2023-03-11T10:56:36;3.65;;;1.58;;
40649;SDS011;26342;42.826;23.992;2023-03-11T10:59:04;0.85;;;0.57;;
40649;SDS011;26342;42.826;23.992;2023-03-11T11:01:49;1.05;;;0.30;;
40649;SDS011;26342;42.826;23.992;2023-03-11T11:06:53;0.30;;;0.30;;
40649;SDS011;26342;42.826;23.992;2023-03-11T11:09:20;0.93;;;0.57;;
40649;SDS011;26342;42.826;23.992;2023-03-11T11:12:04;0.10;;;0.10;;
40649;SDS011;26342;42.826;23.992;2023-03-11T11:14:42;0.10;;;0.10;;
40649;SDS011;26342;42.826;23.992;2023-03-11T11:19:45;1.13;;;0.50;;
40649;SDS011;26342;42.826;23.992;2023-03-11T11:22:14;0.15;;;0.15;;
40649;SDS011;26342;42.826;23.992;2023-03-11T11:24:42;0.10;;;0.10;;
40649;SDS011;26342;42.826;23.992;2023-03-11T11:27:17;2.55;;;0.77;;
40649;SDS011;26342;42.826;23.992;2023-03-11T11:29:43;1.35;;;0.80;;
40649;SDS011;26342;42.826;23.992;2023-03-11T11:37:25;0.30;;;0.30;;
40649;SDS011;26342;42.826;23.992;2023-03-11T11:39:57;0.95;;;0.82;;
40649;SDS011;26342;42.826;23.992;2023-03-11T11:42:45;1.70;;;1.58;;
40649;SDS011;26342;42.826;23.992;2023-03-11T11:47:45;0.40;;;0.38;;
40649;SDS011;26342;42.826;23.992;2023-03-11T11:50:24;0.50;;;0.50;;
40649;SDS011;26342;42.826;23.992;2023-03-11T11:53:11;0.28;;;0.28;;
40649;SDS011;26342;42.826;23.992;2023-03-11T11:55:52;0.80;;;0.80;;
40649;SDS011;26342;42.826;23.992;2023-03-11T11:58:18;1.75;;;0.60;;
40649;SDS011;26342;42.826;23.992;2023-03-11T12:06:26;0.20;;;0.10;;
40649;SDS011;26342;42.826;23.992;2023-03-11T12:09:16;0.43;;;0.30;;
40649;SDS011;26342;42.826;23.992;2023-03-11T12:12:07;0.35;;;0.35;;
40649;SDS011;26342;42.826;23.992;2023-03-11T12:14:59;1.08;;;0.88;;
40649;SDS011;26342;42.826;23.992;2023-03-11T12:17:37;0.10;;;0.10;;
40649;SDS011;26342;42.826;23.992;2023-03-11T12:31:09;0.25;;;0.25;;
40649;SDS011;26342;42.826;23.992;2023-03-11T12:33:37;0.10;;;0.10;;
40649;SDS011;26342;42.826;23.992;2023-03-11T12:36:04;0.10;;;0.10;;
40649;SDS011;26342;42.826;23.992;2023-03-11T12:38:38;0.10;;;0.10;;
40649;SDS011;26342;42.826;23.992;2023-03-11T12:46:04;0.30;;;0.30;;
40649;SDS011;26342;42.826;23.992;2023-03-11T12:48:32;0.55;;;0.20;;
40649;SDS011;26342;42.826;23.992;2023-03-11T12:50:59;0.40;;;0.30;;
40649;SDS011;26342;42.826;23.992;2023-03-11T13:04:35;0.85;;;0.32;;
40649;SDS011;26342;42.826;23.992;2023-03-11T13:07:28;0.50;;;0.50;;
40649;SDS011;26342;42.826;23.992;2023-03-11T13:12:48;1.70;;;1.15;;
40649;SDS011;26342;42.826;23.992;2023-03-11T13:25:39;3.13;;;0.60;;
40649;SDS011;26342;42.826;23.992;2023-03-11T13:41:50;1.45;;;0.43;;
40649;SDS011;26342;42.826;23.992;2023-03-11T13:46:47;0.15;;;0.10;;
40649;SDS011;26342;42.826;23.992;2023-03-11T13:49:24;1.92;;;1.40;;
40649;SDS011;26342;42.826;23.992;2023-03-11T13:51:51;1.30;;;1.20;;
40649;SDS011;26342;42.826;23.992;2023-03-11T13:56:56;0.90;;;0.80;;
40649;SDS011;26342;42.826;23.992;2023-03-11T13:59:25;2.53;;;1.23;;
40649;SDS011;26342;42.826;23.992;2023-03-11T14:02:15;4.32;;;1.48;;
40649;SDS011;26342;42.826;23.992;2023-03-11T14:04:43;1.15;;;0.75;;
40649;SDS011;26342;42.826;23.992;2023-03-11T14:07:23;4.00;;;3.15;;
40649;SDS011;26342;42.826;23.992;2023-03-11T14:09:49;0.75;;;0.57;;
40649;SDS011;26342;42.826;23.992;2023-03-11T14:12:14;1.33;;;1.08;;
40649;SDS011;26342;42.826;23.992;2023-03-11T14:14:42;0.88;;;0.70;;
40649;SDS011;26342;42.826;23.992;2023-03-11T14:17:14;0.20;;;0.20;;
40649;SDS011;26342;42.826;23.992;2023-03-11T14:19:41;2.40;;;0.77;;
40649;SDS011;26342;42.826;23.992;2023-03-11T14:22:08;0.50;;;0.50;;
40649;SDS011;26342;42.826;23.992;2023-03-11T14:24:35;0.47;;;0.47;;
40649;SDS011;26342;42.826;23.992;2023-03-11T14:27:05;0.30;;;0.30;;
40649;SDS011;26342;42.826;23.992;2023-03-11T14:29:34;0.63;;;0.47;;
40649;SDS011;26342;42.826;23.992;2023-03-11T14:34:59;1.63;;;1.50;;
40649;SDS011;26342;42.826;23.992;2023-03-11T14:39:58;2.33;;;2.15;;
40649;SDS011;26342;42.826;23.992;2023-03-11T14:42:27;1.65;;;1.55;;
40649;SDS011;26342;42.826;23.992;2023-03-11T14:45:03;2.13;;;1.55;;
40649;SDS011;26342;42.826;23.992;2023-03-11T14:47:37;1.13;;;0.82;;
40649;SDS011;26342;42.826;23.992;2023-03-11T14:50:27;0.40;;;0.40;;
40649;SDS011;26342;42.826;23.992;2023-03-11T14:53:03;0.83;;;0.60;;
40649;SDS011;26342;42.826;23.992;2023-03-11T14:55:30;0.90;;;0.90;;
40649;SDS011;26342;42.826;23.992;2023-03-11T14:58:03;3.20;;;1.75;;
40649;SDS011;26342;42.826;23.992;2023-03-11T15:00:35;1.05;;;0.73;;
40649;SDS011;26342;42.826;23.992;2023-03-11T15:05:54;1.80;;;1.05;;
40649;SDS011;26342;42.826;23.992;2023-03-11T15:08:22;1.45;;;0.60;;
40649;SDS011;26342;42.826;23.992;2023-03-11T15:11:00;0.20;;;0.20;;
40649;SDS011;26342;42.826;23.992;2023-03-11T15:13:27;0.47;;;0.47;;
40649;SDS011;26342;42.826;23.992;2023-03-11T15:15:59;1.45;;;1.35;;
40649;SDS011;26342;42.826;23.992;2023-03-11T15:18:28;1.58;;;0.52;;
40649;SDS011;26342;42.826;23.992;2023-03-11T15:21:00;0.20;;;0.20;;
40649;SDS011;26342;42.826;23.992;2023-03-11T15:23:27;2.85;;;2.47;;
40649;SDS011;26342;42.826;23.992;2023-03-11T15:25:52;1.27;;;1.17;;
40649;SDS011;26342;42.826;23.992;2023-03-11T15:28:26;0.32;;;0.32;;
40649;SDS011;26342;42.826;23.992;2023-03-11T15:33:46;4.63;;;2.28;;
40649;SDS011;26342;42.826;23.992;2023-03-11T15:36:28;0.85;;;0.57;;
40649;SDS011;26342;42.826;23.992;2023-03-11T15:44:41;2.35;;;1.25;;
40649;SDS011;26342;42.826;23.992;2023-03-11T15:49:40;2.15;;;1.10;;
40649;SDS011;26342;42.826;23.992;2023-03-11T15:52:06;0.98;;;0.90;;
40649;SDS011;26342;42.826;23.992;2023-03-11T15:54:32;1.75;;;1.20;;
40649;SDS011;26342;42.826;23.992;2023-03-11T15:56:58;1.75;;;0.65;;
40649;SDS011;26342;42.826;23.992;2023-03-11T15:59:25;1.38;;;1.25;;
40649;SDS011;26342;42.826;23.992;2023-03-11T16:01:52;3.35;;;0.90;;
40649;SDS011;26342;42.826;23.992;2023-03-11T16:04:19;5.75;;;1.25;;
40649;SDS011;26342;42.826;23.992;2023-03-11T16:06:45;5.68;;;1.42;;
40649;SDS011;26342;42.826;23.992;2023-03-11T16:09:12;0.77;;;0.75;;
40649;SDS011;26342;42.826;23.992;2023-03-11T16:11:38;0.73;;;0.68;;
40649;SDS011;26342;42.826;23.992;2023-03-11T16:14:04;0.70;;;0.70;;
40649;SDS011;26342;42.826;23.992;2023-03-11T16:16:30;1.05;;;1.00;;
40649;SDS011;26342;42.826;23.992;2023-03-11T16:18:56;0.73;;;0.60;;
40649;SDS011;26342;42.826;23.992;2023-03-11T16:21:23;1.70;;;0.80;;
40649;SDS011;26342;42.826;23.992;2023-03-11T16:23:51;2.15;;;0.98;;
40649;SDS011;26342;42.826;23.992;2023-03-11T16:26:17;0.55;;;0.55;;
40649;SDS011;26342;42.826;23.992;2023-03-11T16:28:43;2.03;;;1.17;;
40649;SDS011;26342;42.826;23.992;2023-03-11T16:31:08;2.08;;;1.23;;
40649;SDS011;26342;42.826;23.992;2023-03-11T16:33:37;1.75;;;1.42;;
40649;SDS011;26342;42.826;23.992;2023-03-11T16:36:03;1.42;;;1.23;;
40649;SDS011;26342;42.826;23.992;2023-03-11T16:38:30;5.63;;;2.03;;
40649;SDS011;26342;42.826;23.992;2023-03-11T16:40:59;2.08;;;1.77;;
40649;SDS011;26342;42.826;23.992;2023-03-11T16:43:26;2.40;;;2.08;;
40649;SDS011;26342;42.826;23.992;2023-03-11T16:45:53;3.03;;;2.40;;
40649;SDS011;26342;42.826;23.992;2023-03-11T16:48:19;0.88;;;0.88;;
40649;SDS011;26342;42.826;23.992;2023-03-11T16:50:45;0.22;;;0.22;;